createdAt,value
2018-09-05T00:01:25.870Z,17.20
2018-09-05T00:06:20.233Z,17.10
2018-09-05T00:11:14.884Z,17.10
2018-09-05T00:16:09.322Z,17.10
2018-09-05T00:21:04.898Z,17.00
2018-09-05T00:25:59.706Z,16.90
2018-09-05T00:30:54.423Z,16.80
2018-09-05T00:35:48.962Z,16.80
2018-09-05T00:40:44.262Z,16.70
2018-09-05T00:45:39.875Z,16.60
2018-09-05T00:50:35.549Z,16.60
2018-09-05T00:55:30.126Z,16.50
2018-09-05T01:00:25.185Z,16.50
2018-09-05T01:05:19.680Z,16.40
2018-09-05T01:10:14.435Z,16.30
2018-09-05T01:15:09.017Z,16.30
2018-09-05T01:20:04.788Z,16.30
2018-09-05T01:25:32.478Z,16.10
2018-09-05T01:30:28.499Z,16.10
2018-09-05T01:35:23.080Z,16.10
2018-09-05T01:40:17.780Z,16.20
2018-09-05T01:45:12.937Z,16.30
2018-09-05T01:50:07.332Z,16.40
2018-09-05T01:55:09.525Z,16.40
2018-09-05T02:00:05.208Z,16.30
2018-09-05T02:04:59.481Z,16.20
2018-09-05T02:09:53.869Z,16.20
2018-09-05T02:14:49.156Z,16.10
2018-09-05T02:19:52.089Z,16.10
2018-09-05T02:24:54.003Z,16.10
2018-09-05T02:29:48.878Z,16.10
2018-09-05T02:35:08.009Z,16.00
2018-09-05T02:40:04.097Z,16.00
2018-09-05T02:44:58.447Z,15.90
2018-09-05T02:49:52.911Z,15.90
2018-09-05T02:54:47.452Z,15.80
2018-09-05T02:59:49.416Z,15.70
2018-09-05T03:04:51.286Z,15.70
2018-09-05T03:09:52.987Z,15.50
2018-09-05T03:14:55.177Z,15.40
2018-09-05T03:19:57.290Z,15.40
2018-09-05T03:24:52.037Z,15.30
2018-09-05T03:29:46.512Z,15.30
2018-09-05T03:34:42.768Z,15.30
2018-09-05T03:39:37.077Z,15.30
2018-09-05T03:44:32.801Z,15.30
2018-09-05T03:49:27.612Z,15.30
2018-09-05T03:54:30.100Z,15.40
2018-09-05T03:59:32.221Z,15.30
2018-09-05T04:04:37.579Z,15.30
2018-09-05T04:09:39.142Z,15.20
2018-09-05T04:14:41.251Z,15.20
2018-09-05T04:19:39.231Z,15.10
2018-09-05T04:24:33.658Z,15.20
2018-09-05T04:29:28.165Z,15.20
2018-09-05T04:34:23.031Z,15.20
2018-09-05T04:39:17.862Z,15.20
2018-09-05T04:44:12.313Z,15.30
2018-09-05T04:49:22.443Z,15.40
2018-09-05T04:54:17.580Z,15.40
2018-09-05T04:59:12.826Z,15.60
2018-09-05T05:04:07.379Z,15.60
2018-09-05T05:09:03.106Z,15.80
2018-09-05T05:13:57.842Z,15.90
2018-09-05T05:18:53.028Z,16.10
2018-09-05T05:23:48.518Z,16.20
2018-09-05T05:28:43.891Z,16.30
2018-09-05T05:33:39.292Z,16.20
2018-09-05T05:38:35.321Z,16.30
2018-09-05T05:43:30.526Z,16.40
2018-09-05T05:48:25.191Z,16.20
2018-09-05T05:53:19.889Z,16.40
2018-09-05T05:58:14.804Z,16.40
2018-09-05T06:03:09.723Z,16.60
2018-09-05T06:08:06.021Z,16.70
2018-09-05T06:13:00.273Z,16.90
2018-09-05T06:17:55.420Z,17.20
2018-09-05T06:22:50.832Z,17.40
2018-09-05T06:27:46.047Z,17.90
2018-09-05T06:32:42.548Z,18.40
2018-09-05T06:37:46.542Z,18.60
2018-09-05T06:42:49.073Z,18.80
2018-09-05T06:47:45.759Z,19.10
2018-09-05T06:52:40.304Z,19.40
2018-09-05T06:57:36.571Z,19.70
2018-09-05T07:02:34.350Z,19.80
2018-09-05T07:07:29.265Z,20.20
2018-09-05T07:12:24.165Z,19.50
2018-09-05T07:17:20.179Z,20.80
2018-09-05T07:22:14.733Z,21.90
2018-09-05T07:27:25.204Z,23.30
2018-09-05T07:32:28.327Z,23.70
2018-09-05T07:37:23.088Z,22.80
2018-09-05T07:42:17.479Z,22.30
2018-09-05T07:47:12.211Z,23.70
2018-09-05T07:52:07.589Z,23.70
2018-09-05T07:57:13.755Z,25.40
2018-09-05T08:02:15.853Z,27.20
2018-09-05T08:07:34.427Z,28.60
2018-09-05T08:12:52.950Z,28.60
2018-09-05T08:18:03.304Z,29.00
2018-09-05T08:23:15.572Z,29.00
2018-09-05T08:28:25.908Z,29.30
2018-09-05T08:33:43.925Z,29.30
2018-09-05T08:38:39.327Z,30.10
2018-09-05T08:43:34.997Z,32.20
2018-09-05T08:48:30.043Z,31.70
2018-09-05T08:53:24.576Z,33.60
2018-09-05T08:58:19.209Z,33.40
2018-09-05T09:03:15.353Z,34.30
2018-09-05T09:08:10.370Z,34.70
2018-09-05T09:13:05.793Z,33.30
2018-09-05T09:18:00.927Z,32.80
2018-09-05T09:22:55.362Z,34.20
2018-09-05T09:27:50.611Z,36.20
2018-09-05T09:32:46.248Z,37.50
2018-09-05T09:37:43.518Z,37.20
2018-09-05T09:42:38.628Z,38.60
2018-09-05T09:47:34.081Z,38.10
2018-09-05T09:52:29.161Z,39.70
2018-09-05T09:57:24.760Z,40.30
2018-09-05T10:02:24.553Z,37.80
2018-09-05T10:07:24.553Z,36.40
2018-09-05T10:12:24.131Z,39.30
2018-09-05T10:17:25.420Z,39.20
2018-09-05T10:22:21.486Z,37.90
2018-09-05T10:27:16.349Z,37.20
2018-09-05T10:32:11.063Z,40.30
2018-09-05T10:37:20.551Z,37.80
2018-09-05T10:42:22.357Z,40.00
2018-09-05T10:47:18.168Z,39.80
2018-09-05T10:52:12.537Z,38.10
2018-09-05T10:57:08.417Z,39.70
2018-09-05T11:02:05.626Z,41.60
2018-09-05T11:07:08.876Z,42.40
2018-09-05T11:12:05.216Z,40.20
2018-09-05T11:17:00.006Z,36.60
2018-09-05T11:21:54.541Z,36.40
2018-09-05T11:26:49.535Z,35.00
2018-09-05T11:31:45.050Z,33.50
2018-09-05T11:36:39.651Z,31.90
2018-09-05T11:41:34.650Z,31.00
2018-09-05T11:46:29.136Z,31.00
2018-09-05T11:51:23.676Z,31.30
2018-09-05T11:56:19.321Z,30.80
2018-09-05T12:01:14.177Z,30.10
2018-09-05T12:06:09.948Z,30.00
2018-09-05T12:11:08.230Z,30.00
2018-09-05T12:16:06.749Z,29.70
2018-09-05T12:21:04.415Z,30.00
2018-09-05T12:25:59.037Z,30.30
2018-09-05T12:31:15.813Z,30.30
2018-09-05T12:36:34.080Z,29.00
2018-09-05T12:41:52.216Z,28.80
2018-09-05T12:46:47.775Z,27.90
2018-09-05T12:51:42.505Z,28.30
2018-09-05T12:56:38.883Z,28.30
2018-09-05T13:01:33.620Z,28.50
2018-09-05T13:06:36.041Z,28.80
2018-09-05T13:11:40.285Z,28.70
2018-09-05T13:16:42.029Z,28.50
2018-09-05T13:21:36.459Z,28.80
2018-09-05T13:26:31.080Z,28.40
2018-09-05T13:31:26.353Z,27.80
2018-09-05T13:36:21.058Z,27.70
2018-09-05T13:41:22.969Z,27.60
2018-09-05T13:46:25.527Z,27.70
2018-09-05T13:51:21.675Z,27.90
2018-09-05T13:56:16.410Z,28.00
2018-09-05T14:01:12.306Z,28.10
2018-09-05T14:06:08.580Z,28.20
2018-09-05T14:11:11.857Z,28.30
2018-09-05T14:16:14.495Z,28.50
2018-09-05T14:21:10.162Z,28.20
2018-09-05T14:26:06.061Z,28.30
2018-09-05T14:31:01.874Z,28.40
2018-09-05T14:35:56.550Z,28.30
2018-09-05T14:40:51.587Z,27.90
2018-09-05T14:45:47.163Z,27.90
2018-09-05T14:50:42.409Z,28.10
2018-09-05T14:55:37.319Z,28.10
2018-09-05T15:00:39.508Z,28.30
2018-09-05T15:05:36.440Z,28.30
2018-09-05T15:10:31.209Z,28.30
2018-09-05T15:15:26.455Z,28.20
2018-09-05T15:20:21.035Z,28.10
2018-09-05T15:25:23.310Z,27.70
2018-09-05T15:30:18.602Z,27.30
2018-09-05T15:35:13.230Z,27.00
2018-09-05T15:40:11.122Z,27.00
2018-09-05T15:45:06.691Z,27.10
2018-09-05T15:50:03.095Z,27.00
2018-09-05T15:54:58.596Z,26.60
2018-09-05T15:59:54.582Z,26.60
2018-09-05T16:04:49.889Z,26.30
2018-09-05T16:09:44.563Z,26.20
2018-09-05T16:14:39.880Z,26.00
2018-09-05T16:19:34.604Z,25.90
2018-09-05T16:24:29.172Z,25.80
2018-09-05T16:29:32.200Z,25.70
2018-09-05T16:34:27.505Z,25.50
2018-09-05T16:39:22.625Z,25.40
2018-09-05T16:44:18.745Z,25.20
2018-09-05T16:49:13.411Z,25.10
2018-09-05T16:54:16.410Z,25.00
2018-09-05T16:59:11.549Z,24.90
2018-09-05T17:04:08.378Z,24.80
2018-09-05T17:09:04.041Z,24.60
2018-09-05T17:13:58.656Z,24.40
2018-09-05T17:19:01.427Z,24.30
2018-09-05T17:23:56.012Z,24.20
2018-09-05T17:28:51.323Z,24.00
2018-09-05T17:33:45.753Z,23.90
2018-09-05T17:38:40.344Z,23.70
2018-09-05T17:43:35.668Z,23.60
2018-09-05T17:48:29.964Z,23.30
2018-09-05T17:53:24.633Z,23.20
2018-09-05T17:58:19.008Z,23.10
2018-09-05T18:03:14.283Z,22.90
2018-09-05T18:08:09.480Z,22.70
2018-09-05T18:13:06.273Z,22.60
2018-09-05T18:18:00.840Z,22.40
2018-09-05T18:22:56.967Z,22.20
2018-09-05T18:27:51.427Z,22.10
2018-09-05T18:32:46.048Z,22.00
2018-09-05T18:37:40.778Z,21.80
2018-09-05T18:42:35.808Z,21.70
2018-09-05T18:47:30.817Z,21.60
2018-09-05T18:52:25.892Z,21.50
2018-09-05T18:57:20.559Z,21.30
2018-09-05T19:02:16.173Z,21.20
2018-09-05T19:07:10.869Z,21.20
2018-09-05T19:12:08.797Z,21.10
2018-09-05T19:17:05.288Z,21.00
2018-09-05T19:22:00.142Z,21.00
2018-09-05T19:26:55.113Z,20.80
2018-09-05T19:31:50.469Z,20.60
2018-09-05T19:36:45.148Z,20.30
2018-09-05T19:41:39.652Z,20.10
2018-09-05T19:46:34.612Z,19.90
2018-09-05T19:51:29.603Z,19.90
2018-09-05T19:56:25.184Z,19.80
2018-09-05T20:01:20.102Z,19.50
2018-09-05T20:06:14.946Z,19.40
2018-09-05T20:11:12.042Z,19.40
2018-09-05T20:16:07.777Z,19.30
2018-09-05T20:21:04.021Z,19.40
2018-09-05T20:25:58.888Z,19.40
2018-09-05T20:30:55.324Z,19.30
2018-09-05T20:35:50.317Z,19.20
2018-09-05T20:40:45.897Z,19.10
2018-09-05T20:45:40.516Z,19.00
2018-09-05T20:50:35.969Z,18.90
2018-09-05T20:55:31.877Z,18.80
2018-09-05T21:00:26.922Z,18.70
2018-09-05T21:05:21.469Z,18.70
2018-09-05T21:10:16.041Z,18.50
2018-09-05T21:15:10.897Z,18.40
2018-09-05T21:20:06.871Z,18.30
2018-09-05T21:25:02.901Z,18.20
2018-09-05T21:29:57.894Z,18.20
2018-09-05T21:34:52.361Z,18.00
2018-09-05T21:39:54.484Z,17.80
2018-09-05T21:44:49.450Z,17.80
2018-09-05T21:49:44.119Z,17.70
2018-09-05T21:54:39.128Z,17.70
2018-09-05T21:59:33.854Z,17.60
2018-09-05T22:04:29.618Z,17.60
2018-09-05T22:09:24.645Z,17.60
2018-09-05T22:14:19.802Z,17.60
2018-09-05T22:19:15.489Z,17.60
2018-09-05T22:24:15.312Z,17.50
2018-09-05T22:29:09.864Z,17.40
2018-09-05T22:34:05.397Z,17.40
2018-09-05T22:38:59.979Z,17.40
2018-09-05T22:44:13.254Z,17.30
2018-09-05T22:50:03.511Z,17.20
2018-09-05T22:55:26.716Z,17.20
2018-09-05T23:00:32.289Z,17.20
2018-09-05T23:05:55.295Z,17.10
2018-09-05T23:11:01.106Z,17.10
2018-09-05T23:16:07.169Z,17.00
2018-09-05T23:21:17.395Z,16.90
2018-09-05T23:26:12.264Z,16.90
2018-09-05T23:31:07.469Z,16.80
2018-09-05T23:36:03.030Z,16.70
2018-09-05T23:40:58.222Z,16.70
2018-09-05T23:45:52.790Z,16.60
2018-09-05T23:50:48.629Z,16.50
2018-09-05T23:55:43.409Z,16.50
